Time;durP1;ratioP1;P1;durP2;ratioP2;P2;SDS_P1;SDS_P2;PMS_P1;PMS_P2;Temp;Humidity;BMP_temperature;BMP_pressure;BME280_temperature;BME280_humidity;BME280_pressure;Samples;Min_cycle;Max_cycle;Signal;HPM_P1;HPM_P2
2022/07/21 00:02:03;;;;;;;9.07;7.20;;;22.00;99.90;;;;;;5031830;28;20170;-79
2022/07/21 00:04:29;;;;;;;7.90;7.00;;;22.00;99.90;;;;;;5031437;28;20198;-79
2022/07/21 00:06:54;;;;;;;7.85;7.05;;;22.10;99.90;;;;;;5015298;28;20283;-79
2022/07/21 00:09:20;;;;;;;7.60;6.80;;;22.10;99.90;;;;;;5015222;28;20181;-79
2022/07/21 00:11:46;;;;;;;8.20;7.40;;;22.10;99.90;;;;;;4998628;28;20186;-79
2022/07/21 00:14:12;;;;;;;7.50;6.80;;;22.10;99.90;;;;;;5035526;28;20178;-79
2022/07/21 00:16:39;;;;;;;8.35;7.20;;;22.10;99.90;;;;;;5019155;28;20237;-79
2022/07/21 00:19:05;;;;;;;7.70;6.90;;;22.00;99.90;;;;;;5035558;28;20241;-79
2022/07/21 00:21:31;;;;;;;8.23;7.43;;;22.00;99.90;;;;;;5037386;28;20214;-79
2022/07/21 00:23:57;;;;;;;7.43;6.72;;;21.80;99.90;;;;;;5018916;28;20186;-79
2022/07/21 00:26:23;;;;;;;7.30;6.60;;;21.90;99.90;;;;;;5035178;28;20195;-79
2022/07/21 00:28:49;;;;;;;7.38;6.65;;;21.80;99.90;;;;;;5018835;28;20205;-79
2022/07/21 00:31:14;;;;;;;9.77;6.85;;;21.80;99.90;;;;;;5035711;28;20174;-79
2022/07/21 00:33:40;;;;;;;7.38;6.68;;;21.80;99.90;;;;;;5002805;28;20293;-79
2022/07/21 00:36:06;;;;;;;7.80;7.05;;;21.80;99.90;;;;;;5019067;28;20206;-79
2022/07/21 00:38:31;;;;;;;8.23;6.40;;;21.80;99.90;;;;;;5002413;28;20213;-79
2022/07/21 00:40:57;;;;;;;6.90;6.25;;;21.70;99.90;;;;;;5018988;28;20252;-79
2022/07/21 00:43:23;;;;;;;6.88;6.18;;;21.90;99.90;;;;;;5018449;28;20197;-79
2022/07/21 00:45:51;;;;;;;6.38;5.78;;;21.90;99.90;;;;;;5018854;28;20202;-79
2022/07/21 00:48:17;;;;;;;8.00;6.30;;;21.90;99.90;;;;;;5035260;28;20328;-79
2022/07/21 00:50:42;;;;;;;7.78;6.53;;;21.90;99.90;;;;;;5035274;28;20211;-79
2022/07/21 00:53:08;;;;;;;6.80;6.18;;;21.90;99.90;;;;;;5002249;28;20178;-79
2022/07/21 00:55:33;;;;;;;7.78;5.78;;;21.90;99.90;;;;;;5018812;28;20209;-79
2022/07/21 00:57:59;;;;;;;6.45;5.85;;;22.00;99.90;;;;;;5018643;28;20574;-79
2022/07/21 01:00:28;;;;;;;6.35;5.70;;;22.00;99.90;;;;;;5018859;28;20232;-79
2022/07/21 01:02:54;;;;;;;6.10;5.47;;;22.00;99.90;;;;;;5034997;28;20253;-79
2022/07/21 01:05:21;;;;;;;7.93;5.75;;;22.10;99.90;;;;;;5018783;28;20205;-79
2022/07/21 01:07:49;;;;;;;6.70;6.10;;;22.10;99.90;;;;;;5035350;28;20209;-79
2022/07/21 01:10:16;;;;;;;7.18;6.47;;;22.10;99.90;;;;;;5018419;28;20206;-79
2022/07/21 01:12:42;;;;;;;7.90;6.45;;;22.00;99.90;;;;;;5018259;28;20598;-79
2022/07/21 01:15:10;;;;;;;7.63;6.82;;;21.90;99.90;;;;;;5034774;28;20205;-79
2022/07/21 01:17:36;;;;;;;8.07;7.03;;;22.00;99.90;;;;;;5035026;28;20178;-79
2022/07/21 01:20:06;;;;;;;7.85;7.05;;;22.00;99.90;;;;;;5018428;28;20262;-79
2022/07/21 01:22:34;;;;;;;7.45;6.75;;;21.90;99.90;;;;;;5001977;28;20178;-79
2022/07/21 01:24:59;;;;;;;8.20;7.40;;;21.80;99.90;;;;;;5034145;28;20196;-79
2022/07/21 01:27:26;;;;;;;7.97;7.20;;;21.90;99.90;;;;;;5018986;28;20614;-79
2022/07/21 01:29:53;;;;;;;9.07;7.60;;;21.90;99.90;;;;;;5018326;28;20272;-79
2022/07/21 01:32:19;;;;;;;8.07;7.28;;;21.90;99.90;;;;;;5035141;28;20640;-79
2022/07/21 01:34:44;;;;;;;8.13;7.32;;;21.90;99.90;;;;;;5018323;28;20174;-79
2022/07/21 01:37:10;;;;;;;7.97;7.22;;;21.80;99.90;;;;;;5018181;28;20195;-79
2022/07/21 01:42:20;;;;;;;8.82;7.35;;;21.70;99.90;;;;;;5035003;28;20172;-79
2022/07/21 01:44:45;;;;;;;8.10;7.30;;;21.60;99.90;;;;;;5018184;28;20167;-79
2022/07/21 01:47:11;;;;;;;8.07;7.22;;;21.60;99.90;;;;;;5001986;28;20264;-79
2022/07/21 01:49:37;;;;;;;8.43;7.63;;;21.40;99.90;;;;;;5018260;28;20312;-79
2022/07/21 01:52:02;;;;;;;9.40;7.78;;;21.40;99.90;;;;;;5034443;28;20228;-79
2022/07/21 01:54:28;;;;;;;8.27;7.57;;;21.40;99.90;;;;;;5002012;28;20174;-79
2022/07/21 01:56:53;;;;;;;8.27;7.47;;;21.30;99.90;;;;;;5018070;28;20205;-79
2022/07/21 01:59:19;;;;;;;8.48;7.60;;;21.40;99.90;;;;;;5001724;28;20209;-79
2022/07/21 02:01:45;;;;;;;9.45;8.38;;;21.40;99.90;;;;;;5017941;28;20208;-79
2022/07/21 02:04:10;;;;;;;9.05;8.15;;;21.30;99.90;;;;;;5017840;28;20178;-79
2022/07/21 02:06:36;;;;;;;8.98;8.10;;;21.10;99.90;;;;;;5017960;28;20198;-79
2022/07/21 02:09:02;;;;;;;9.43;8.52;;;21.10;99.90;;;;;;5034438;28;20171;-79
2022/07/21 02:11:28;;;;;;;9.48;8.48;;;21.10;99.90;;;;;;5017760;28;20201;-78
2022/07/21 02:13:53;;;;;;;9.23;8.18;;;21.00;99.90;;;;;;5017395;28;20265;-78
2022/07/21 02:16:19;;;;;;;9.70;8.52;;;21.00;99.90;;;;;;5017426;28;20218;-79
2022/07/21 02:18:44;;;;;;;9.63;8.63;;;21.00;99.90;;;;;;5001459;28;20206;-79
2022/07/21 02:21:10;;;;;;;8.90;8.10;;;21.10;99.90;;;;;;5017487;28;20278;-79
2022/07/21 02:23:36;;;;;;;9.60;8.65;;;21.10;99.90;;;;;;5017900;28;20182;-79
2022/07/21 02:26:02;;;;;;;10.27;8.70;;;21.10;99.90;;;;;;5017877;28;20202;-79
2022/07/21 02:28:28;;;;;;;9.93;8.93;;;21.30;99.90;;;;;;5018214;28;20664;-78
2022/07/21 02:30:54;;;;;;;9.93;8.85;;;21.30;99.90;;;;;;5018221;28;20186;-79
2022/07/21 02:33:21;;;;;;;9.57;8.57;;;21.30;99.90;;;;;;5034369;28;20234;-79
2022/07/21 02:35:47;;;;;;;9.10;8.20;;;21.40;99.90;;;;;;5016750;28;20206;-79
2022/07/21 02:38:13;;;;;;;9.40;8.57;;;21.40;99.90;;;;;;5017935;28;20210;-79
2022/07/21 02:40:39;;;;;;;9.68;8.45;;;21.40;99.90;;;;;;5017893;28;20174;-78
2022/07/21 02:43:05;;;;;;;8.95;7.68;;;21.40;99.90;;;;;;5017917;28;20175;-79
2022/07/21 02:45:32;;;;;;;11.07;8.88;;;21.50;99.90;;;;;;5018078;28;20285;-79
2022/07/21 02:48:01;;;;;;;12.27;8.35;;;21.40;99.90;;;;;;5017978;28;20184;-79
2022/07/21 02:50:29;;;;;;;9.63;8.65;;;21.40;99.90;;;;;;5017329;28;20258;-79
2022/07/21 02:52:57;;;;;;;9.60;8.07;;;21.40;99.90;;;;;;5017799;28;20178;-79
2022/07/21 02:55:23;;;;;;;10.40;8.05;;;21.20;99.90;;;;;;5034293;28;20194;-79
2022/07/21 02:57:49;;;;;;;6.95;5.72;;;21.10;99.90;;;;;;5033887;28;20198;-78
2022/07/21 03:00:14;;;;;;;8.93;8.00;;;21.10;99.90;;;;;;5017764;28;20200;-78
2022/07/21 03:02:40;;;;;;;10.20;8.32;;;21.10;99.90;;;;;;5033950;28;20178;-79
2022/07/21 03:05:06;;;;;;;9.30;8.07;;;21.10;99.90;;;;;;5018148;28;20202;-79
2022/07/21 03:07:32;;;;;;;8.82;7.95;;;21.10;99.90;;;;;;5001388;28;20180;-79
2022/07/21 03:09:57;;;;;;;9.75;8.50;;;21.00;99.90;;;;;;5034597;28;20179;-78
2022/07/21 03:12:23;;;;;;;11.48;9.45;;;21.10;99.90;;;;;;5033574;28;20201;-78
2022/07/21 03:14:48;;;;;;;9.88;8.85;;;21.10;99.90;;;;;;5001396;28;20171;-78
2022/07/21 03:17:14;;;;;;;9.98;8.98;;;21.00;99.90;;;;;;5001547;28;20214;-78
2022/07/21 03:19:40;;;;;;;9.50;8.45;;;21.00;99.90;;;;;;5034093;28;20202;-78
2022/07/21 03:22:05;;;;;;;9.85;8.88;;;21.00;99.90;;;;;;5017622;28;20214;-78
2022/07/21 03:24:31;;;;;;;13.05;9.40;;;21.00;99.90;;;;;;5001398;28;20178;-78
2022/07/21 03:26:57;;;;;;;10.70;9.30;;;21.10;99.90;;;;;;5018106;28;20194;-78
2022/07/21 03:29:23;;;;;;;11.25;9.85;;;21.00;99.90;;;;;;5037102;28;20599;-78
2022/07/21 03:31:49;;;;;;;11.20;10.05;;;21.00;99.90;;;;;;5039270;28;20170;-78
2022/07/21 03:34:14;;;;;;;12.65;11.27;;;21.00;99.90;;;;;;5023407;28;20296;-78
2022/07/21 03:36:40;;;;;;;12.20;11.00;;;21.00;99.90;;;;;;5014972;28;20198;-79
2022/07/21 03:39:06;;;;;;;12.77;11.18;;;20.90;99.90;;;;;;5014831;28;20300;-78
2022/07/21 03:41:32;;;;;;;13.52;11.90;;;20.90;99.90;;;;;;5015089;28;20177;-79
2022/07/21 03:43:57;;;;;;;13.32;11.85;;;20.90;99.90;;;;;;5015048;28;20214;-78
2022/07/21 03:46:23;;;;;;;14.50;11.85;;;21.00;99.90;;;;;;5015849;28;20198;-78
2022/07/21 03:48:49;;;;;;;14.30;12.23;;;21.00;99.90;;;;;;5019351;28;20186;-78
2022/07/21 03:51:15;;;;;;;14.18;12.60;;;20.90;99.90;;;;;;5018831;28;20201;-79
2022/07/21 03:53:40;;;;;;;15.25;12.85;;;20.80;99.90;;;;;;5018676;28;20178;-78
2022/07/21 03:56:06;;;;;;;15.75;13.20;;;20.70;99.90;;;;;;5018633;28;20202;-78
2022/07/21 03:58:32;;;;;;;14.40;12.90;;;20.80;99.90;;;;;;5018609;28;20229;-78
2022/07/21 04:00:57;;;;;;;14.88;13.18;;;20.70;99.90;;;;;;5018666;28;20201;-78
2022/07/21 04:03:23;;;;;;;17.95;13.48;;;20.70;99.90;;;;;;5035180;28;20178;-78
2022/07/21 04:05:49;;;;;;;15.23;13.07;;;20.70;99.90;;;;;;5018639;28;20233;-78
2022/07/21 04:08:15;;;;;;;15.45;13.27;;;20.80;99.90;;;;;;5035445;28;20185;-78
2022/07/21 04:10:42;;;;;;;16.92;14.13;;;20.70;99.90;;;;;;5035098;28;20175;-78
2022/07/21 04:13:10;;;;;;;17.08;13.98;;;20.60;99.90;;;;;;5018310;28;20558;-78
2022/07/21 04:15:36;;;;;;;16.10;14.10;;;20.60;99.90;;;;;;5034617;28;20233;-78
2022/07/21 04:18:03;;;;;;;17.42;14.55;;;20.60;99.90;;;;;;5018387;28;20260;-78
2022/07/21 04:20:29;;;;;;;16.92;14.20;;;20.70;99.90;;;;;;5034780;28;20170;-78
2022/07/21 04:22:54;;;;;;;16.20;13.30;;;20.70;99.90;;;;;;5018145;28;20768;-78
2022/07/21 04:25:21;;;;;;;18.13;13.73;;;20.60;99.90;;;;;;5034610;28;20237;-78
2022/07/21 04:27:47;;;;;;;17.90;14.35;;;20.60;99.90;;;;;;5017987;28;20599;-78
2022/07/21 04:30:18;;;;;;;15.40;13.77;;;20.50;99.90;;;;;;5017951;28;20202;-78
2022/07/21 04:32:44;;;;;;;15.77;13.55;;;20.60;99.90;;;;;;5018355;28;20174;-78
2022/07/21 04:35:10;;;;;;;18.58;14.48;;;20.60;99.90;;;;;;5018185;28;20269;-78
2022/07/21 04:37:36;;;;;;;16.08;13.68;;;20.70;99.90;;;;;;5018098;28;20178;-78
2022/07/21 04:40:04;;;;;;;16.35;14.00;;;20.70;99.90;;;;;;5017903;28;20196;-78
2022/07/21 04:42:30;;;;;;;16.38;14.38;;;20.60;99.90;;;;;;5017825;28;20175;-78
2022/07/21 04:44:55;;;;;;;16.45;14.15;;;20.60;99.90;;;;;;5017611;28;20175;-78
2022/07/21 04:47:21;;;;;;;16.63;14.60;;;20.60;99.90;;;;;;5017698;28;20242;-78
2022/07/21 04:49:47;;;;;;;17.00;14.75;;;20.60;99.90;;;;;;5017641;28;20182;-78
2022/07/21 04:52:12;;;;;;;16.07;14.37;;;20.60;99.90;;;;;;5017615;28;20262;-78
2022/07/21 04:54:38;;;;;;;16.90;15.20;;;20.70;99.90;;;;;;5017504;28;20175;-78
2022/07/21 04:57:05;;;;;;;17.00;15.27;;;20.70;99.90;;;;;;5017615;28;20285;-78
2022/07/21 04:59:31;;;;;;;16.90;15.10;;;20.70;99.90;;;;;;5016616;28;20210;-78
2022/07/21 05:01:58;;;;;;;17.15;14.57;;;20.60;99.90;;;;;;5034017;28;20177;-78
2022/07/21 05:04:24;;;;;;;17.02;15.23;;;20.60;99.90;;;;;;5017351;28;20232;-78
2022/07/21 05:06:49;;;;;;;19.25;15.70;;;20.60;99.90;;;;;;5017743;28;20194;-78
2022/07/21 05:09:15;;;;;;;16.42;14.63;;;20.50;99.90;;;;;;5017809;28;20194;-78
2022/07/21 05:11:41;;;;;;;18.88;15.73;;;20.60;99.90;;;;;;5017754;28;20189;-78
2022/07/21 05:14:06;;;;;;;17.33;15.52;;;20.60;99.90;;;;;;5017998;28;20186;-80
2022/07/21 05:16:32;;;;;;;20.80;16.58;;;20.80;99.90;;;;;;5060076;23;20236;-74
2022/07/21 05:18:57;;;;;;;19.48;16.17;;;21.00;99.90;;;;;;5040080;28;20216;-74
2022/07/21 05:21:23;;;;;;;19.55;15.90;;;21.00;99.90;;;;;;5056595;28;20272;-75
2022/07/21 05:23:49;;;;;;;13.73;12.23;;;21.20;99.90;;;;;;5056504;28;20165;-75
2022/07/21 05:26:14;;;;;;;16.75;14.95;;;21.40;99.90;;;;;;5056357;28;20663;-74
2022/07/21 05:28:40;;;;;;;14.98;13.15;;;21.50;99.90;;;;;;5056252;28;20173;-73
2022/07/21 05:31:07;;;;;;;15.85;13.27;;;21.50;99.90;;;;;;5072939;28;20207;-74
2022/07/21 05:33:33;;;;;;;14.00;12.60;;;21.40;99.90;;;;;;5073917;28;20281;-73
2022/07/21 05:35:59;;;;;;;12.80;11.52;;;21.20;99.90;;;;;;5073071;28;20322;-79
2022/07/21 05:38:24;;;;;;;13.40;10.52;;;21.30;99.90;;;;;;5056289;28;20683;-74
2022/07/21 05:40:50;;;;;;;11.55;10.43;;;21.30;99.90;;;;;;5039654;28;20188;-74
2022/07/21 05:43:15;;;;;;;9.88;8.98;;;21.20;99.90;;;;;;5055754;28;20589;-74
2022/07/21 05:45:41;;;;;;;10.43;8.70;;;21.20;99.90;;;;;;5039489;28;20618;-76
2022/07/21 05:48:06;;;;;;;9.50;8.50;;;21.00;99.90;;;;;;5039400;28;20185;-74
2022/07/21 05:50:32;;;;;;;8.55;7.65;;;21.00;99.90;;;;;;5039460;28;20174;-75
2022/07/21 05:52:58;;;;;;;8.05;7.32;;;21.00;99.90;;;;;;5039220;28;20534;-75
2022/07/21 05:55:23;;;;;;;7.40;6.70;;;21.10;99.90;;;;;;5055868;28;20181;-74
2022/07/21 05:57:49;;;;;;;7.88;7.07;;;21.20;99.90;;;;;;5039055;28;20627;-73
2022/07/21 06:00:16;;;;;;;8.32;7.00;;;21.30;99.90;;;;;;5072652;28;20180;-74
2022/07/21 06:02:44;;;;;;;8.93;8.07;;;21.50;99.90;;;;;;5055381;28;20264;-73
2022/07/21 06:05:10;;;;;;;10.73;8.52;;;21.70;99.90;;;;;;5055907;28;20181;-73
2022/07/21 06:07:37;;;;;;;9.48;8.13;;;21.80;99.90;;;;;;5055743;28;20193;-73
2022/07/21 06:10:03;;;;;;;9.90;7.50;;;21.80;99.90;;;;;;5073299;28;20172;-73
2022/07/21 06:12:29;;;;;;;6.72;5.97;;;21.90;99.90;;;;;;5055426;28;20177;-74
2022/07/21 06:14:55;;;;;;;6.70;6.00;;;21.80;99.90;;;;;;5039019;28;20223;-73
2022/07/21 06:17:21;;;;;;;6.20;5.60;;;21.70;99.90;;;;;;5039025;28;20345;-73
2022/07/21 06:19:47;;;;;;;7.93;6.93;;;21.60;99.90;;;;;;5055572;28;20209;-74
2022/07/21 06:22:12;;;;;;;11.00;8.80;;;21.60;99.90;;;;;;5071779;28;20238;-74
2022/07/21 06:24:38;;;;;;;10.57;9.48;;;21.70;99.90;;;;;;5071966;28;20623;-74
2022/07/21 06:27:03;;;;;;;11.40;9.45;;;21.70;99.90;;;;;;5055301;28;20197;-75
2022/07/21 06:29:29;;;;;;;10.15;8.98;;;21.60;99.90;;;;;;5055519;28;20530;-74
2022/07/21 06:31:55;;;;;;;10.15;9.15;;;21.50;99.90;;;;;;5055088;28;20591;-74
2022/07/21 06:34:21;;;;;;;9.77;8.88;;;21.50;99.90;;;;;;5055009;28;20215;-74
2022/07/21 06:36:46;;;;;;;10.00;8.82;;;21.40;99.90;;;;;;5071726;28;20250;-74
2022/07/21 06:39:12;;;;;;;9.75;8.85;;;21.30;99.90;;;;;;5071287;28;20556;-74
2022/07/21 06:41:39;;;;;;;8.57;7.72;;;21.40;99.90;;;;;;5054875;28;20193;-73
2022/07/21 06:44:05;;;;;;;8.27;7.57;;;21.40;99.90;;;;;;5054866;28;20222;-73
2022/07/21 06:46:32;;;;;;;8.90;7.95;;;21.60;99.90;;;;;;5054912;28;20192;-73
2022/07/21 06:48:57;;;;;;;9.82;8.82;;;21.50;99.90;;;;;;5055344;28;20235;-73
2022/07/21 06:51:23;;;;;;;9.43;7.72;;;21.60;99.90;;;;;;5038225;28;20177;-73
2022/07/21 06:53:48;;;;;;;9.02;7.90;;;21.60;99.90;;;;;;5071241;28;20172;-73
2022/07/21 06:56:16;;;;;;;8.35;7.25;;;21.40;99.90;;;;;;5071161;28;20205;-73
2022/07/21 06:58:41;;;;;;;8.38;7.53;;;21.20;99.90;;;;;;5072702;28;20197;-73
2022/07/21 07:01:07;;;;;;;7.88;7.05;;;21.10;99.90;;;;;;5038070;28;20172;-73
2022/07/21 07:03:33;;;;;;;22.63;16.77;;;21.10;99.90;;;;;;5070972;28;20724;-73
2022/07/21 07:05:58;;;;;;;5.55;5.00;;;21.30;99.90;;;;;;5037867;28;20201;-73
2022/07/21 07:08:24;;;;;;;6.80;6.03;;;21.30;99.90;;;;;;5071625;28;20177;-73
2022/07/21 07:10:50;;;;;;;5.55;4.65;;;21.30;99.90;;;;;;5071164;28;20177;-73
2022/07/21 07:13:17;;;;;;;7.43;4.63;;;21.40;99.90;;;;;;5037531;28;20216;-73
2022/07/21 07:15:44;;;;;;;6.80;4.30;;;21.50;99.90;;;;;;5054742;28;20310;-73
2022/07/21 07:18:10;;;;;;;4.30;3.50;;;21.70;99.90;;;;;;5070969;28;20196;-73
2022/07/21 07:20:36;;;;;;;5.43;3.42;;;21.90;99.90;;;;;;5070761;28;20174;-73
2022/07/21 07:23:02;;;;;;;4.82;3.30;;;22.00;99.90;;;;;;5070717;28;20172;-73
2022/07/21 07:25:28;;;;;;;5.22;3.47;;;22.00;99.90;;;;;;5070853;28;20255;-73
2022/07/21 07:27:56;;;;;;;4.20;3.53;;;22.10;99.90;;;;;;5054547;28;20299;-73
2022/07/21 07:30:22;;;;;;;5.28;3.95;;;22.00;99.90;;;;;;5070961;28;20621;-74
2022/07/21 07:32:48;;;;;;;5.45;3.53;;;21.80;99.90;;;;;;5070864;28;20235;-74
2022/07/21 07:35:14;;;;;;;4.72;3.53;;;21.80;99.90;;;;;;5037642;28;20173;-73
2022/07/21 07:37:42;;;;;;;4.13;3.75;;;21.60;99.90;;;;;;5037505;28;20223;-74
2022/07/21 07:40:11;;;;;;;6.68;3.63;;;21.60;99.90;;;;;;5037720;28;20177;-73
2022/07/21 07:42:38;;;;;;;5.03;4.40;;;21.80;99.90;;;;;;5071975;28;20165;-73
2022/07/21 07:45:05;;;;;;;4.45;4.05;;;21.80;99.90;;;;;;5070644;28;20522;-74
2022/07/21 07:47:31;;;;;;;4.88;4.30;;;21.80;99.90;;;;;;5070504;28;20200;-73
2022/07/21 07:49:57;;;;;;;5.57;4.30;;;21.80;99.90;;;;;;5070859;28;20176;-74
2022/07/21 07:52:23;;;;;;;5.63;4.25;;;22.20;99.90;;;;;;5037159;28;20184;-74
2022/07/21 07:54:48;;;;;;;5.07;4.57;;;22.30;99.90;;;;;;5071935;28;20198;-73
2022/07/21 07:57:14;;;;;;;5.57;4.95;;;22.30;99.90;;;;;;5053994;28;20284;-74
2022/07/21 07:59:40;;;;;;;5.38;4.60;;;22.50;99.90;;;;;;5070387;28;20209;-73
2022/07/21 08:02:05;;;;;;;5.50;4.75;;;22.60;99.90;;;;;;5053849;28;20219;-73
2022/07/21 08:04:31;;;;;;;6.07;5.30;;;22.60;99.90;;;;;;5070620;28;20173;-73
2022/07/21 08:06:57;;;;;;;5.63;4.70;;;22.60;99.90;;;;;;5070358;28;20201;-73
2022/07/21 08:09:22;;;;;;;6.78;6.05;;;22.40;99.90;;;;;;5037294;28;20177;-73
2022/07/21 08:11:48;;;;;;;6.10;5.50;;;22.30;99.90;;;;;;5054031;28;20252;-74
2022/07/21 08:14:14;;;;;;;7.60;5.85;;;22.30;99.90;;;;;;5070621;28;20173;-74
2022/07/21 08:16:40;;;;;;;6.53;5.90;;;22.40;99.90;;;;;;5070766;28;20247;-74
2022/07/21 08:19:06;;;;;;;7.47;5.80;;;22.30;99.90;;;;;;5070244;28;20232;-73
2022/07/21 08:21:33;;;;;;;6.25;5.50;;;22.00;99.90;;;;;;5070364;28;20534;-74
2022/07/21 08:24:00;;;;;;;6.35;5.75;;;22.00;99.90;;;;;;5070366;28;20169;-74
2022/07/21 08:26:26;;;;;;;7.15;5.70;;;22.00;99.90;;;;;;5071513;28;20647;-73
2022/07/21 08:28:53;;;;;;;6.03;5.43;;;22.10;99.90;;;;;;5070315;28;20184;-74
2022/07/21 08:31:19;;;;;;;5.97;5.45;;;22.10;99.90;;;;;;5070336;28;20178;-74
2022/07/21 08:33:44;;;;;;;5.68;5.18;;;22.20;99.90;;;;;;5072807;28;20169;-73
2022/07/21 08:36:10;;;;;;;6.07;5.47;;;22.20;99.90;;;;;;5073828;28;20279;-73
2022/07/21 08:38:36;;;;;;;5.95;5.40;;;22.20;99.90;;;;;;5073654;28;20201;-74
2022/07/21 08:41:02;;;;;;;6.22;5.60;;;22.20;99.90;;;;;;5075213;28;20164;-74
2022/07/21 08:43:28;;;;;;;8.63;5.80;;;22.20;99.90;;;;;;5057138;28;20319;-73
2022/07/21 08:45:54;;;;;;;5.65;5.15;;;22.30;99.90;;;;;;5074939;28;20225;-73
2022/07/21 08:48:29;;;;;;;5.63;4.97;;;22.40;99.90;;;;;;5073872;28;20196;-74
2022/07/21 08:50:55;;;;;;;5.50;4.97;;;22.50;99.90;;;;;;5073605;28;20168;-74
2022/07/21 08:53:21;;;;;;;6.13;5.30;;;22.50;99.90;;;;;;5073753;28;20627;-74
2022/07/21 08:55:47;;;;;;;5.93;4.90;;;22.60;99.90;;;;;;5073514;28;20284;-74
2022/07/21 08:58:13;;;;;;;5.68;5.07;;;22.80;99.90;;;;;;5073643;28;20279;-73
2022/07/21 09:00:45;;;;;;;5.32;4.82;;;22.80;99.90;;;;;;5057159;28;20177;-73
2022/07/21 09:03:21;;;;;;;5.72;5.13;;;22.70;99.90;;;;;;5057256;28;20264;-73
2022/07/21 09:06:01;;;;;;;5.18;4.68;;;22.70;99.90;;;;;;5073329;28;20227;-74
2022/07/21 09:08:47;;;;;;;7.05;4.70;;;23.00;99.90;;;;;;5074730;28;20195;-74
2022/07/21 09:11:21;;;;;;;6.47;5.10;;;23.10;99.90;;;;;;5074664;28;20165;-73
2022/07/21 09:14:08;;;;;;;6.13;5.00;;;23.10;99.90;;;;;;5073193;28;20173;-74
2022/07/21 09:16:39;;;;;;;5.28;4.63;;;23.50;99.90;;;;;;5056542;28;20217;-73
2022/07/21 09:19:06;;;;;;;5.28;4.70;;;23.70;99.90;;;;;;5056969;28;20215;-74
2022/07/21 09:21:33;;;;;;;4.95;4.53;;;23.50;99.90;;;;;;5073224;28;20184;-73
2022/07/21 09:24:19;;;;;;;6.78;4.95;;;23.40;99.90;;;;;;5072898;28;20177;-74
2022/07/21 09:27:15;;;;;;;5.20;4.70;;;23.20;99.90;;;;;;5072932;28;20258;-74
2022/07/21 09:29:47;;;;;;;5.13;4.63;;;23.30;99.90;;;;;;5044642;28;20173;-74
2022/07/21 09:32:18;;;;;;;5.28;4.78;;;23.30;99.90;;;;;;5072702;28;20173;-74
2022/07/21 09:35:14;;;;;;;5.53;4.75;;;23.20;99.90;;;;;;5073032;28;20218;-73
2022/07/21 09:37:41;;;;;;;5.40;4.82;;;23.20;99.90;;;;;;5068239;28;20266;-73
2022/07/21 09:40:10;;;;;;;5.28;4.80;;;23.20;99.90;;;;;;5039666;28;20234;-74
2022/07/21 09:42:47;;;;;;;5.75;5.00;;;23.20;99.90;;;;;;5056302;28;20256;-73
2022/07/21 09:45:16;;;;;;;6.07;5.53;;;23.10;99.90;;;;;;5072526;28;20194;-73
2022/07/21 09:47:43;;;;;;;6.25;5.72;;;23.10;99.90;;;;;;5072677;28;20176;-74
2022/07/21 09:50:12;;;;;;;7.32;5.28;;;23.00;99.90;;;;;;5073905;28;20246;-73
2022/07/21 09:52:40;;;;;;;6.30;5.70;;;23.20;99.90;;;;;;5073601;28;20705;-73
2022/07/21 09:55:11;;;;;;;5.78;5.28;;;23.40;99.90;;;;;;5056197;28;20184;-73
2022/07/21 09:57:37;;;;;;;5.40;4.90;;;23.50;99.90;;;;;;5073666;28;20192;-73
2022/07/21 10:00:07;;;;;;;5.32;4.90;;;23.60;99.90;;;;;;5072309;28;20231;-73
2022/07/21 10:02:33;;;;;;;5.82;4.82;;;23.80;99.90;;;;;;5072304;28;20173;-73
2022/07/21 10:05:08;;;;;;;4.75;4.25;;;24.20;99.90;;;;;;5072378;28;20173;-73
2022/07/21 10:07:37;;;;;;;6.40;4.13;;;24.50;99.90;;;;;;5055522;28;20196;-73
2022/07/21 10:10:04;;;;;;;5.63;4.55;;;24.60;99.90;;;;;;5055757;28;20181;-73
2022/07/21 10:12:30;;;;;;;4.70;4.28;;;24.70;99.90;;;;;;5055425;28;20173;-74
2022/07/21 10:14:56;;;;;;;6.63;4.97;;;24.60;99.90;;;;;;5055683;28;20173;-74
2022/07/21 10:17:23;;;;;;;6.25;5.50;;;24.80;99.90;;;;;;5072072;28;20232;-73
2022/07/21 10:20:16;;;;;;;6.07;5.47;;;24.70;99.90;;;;;;5055477;28;20209;-74
2022/07/21 10:23:01;;;;;;;5.35;4.85;;;24.50;99.90;;;;;;5055147;28;20184;-73
2022/07/21 10:25:27;;;;;;;6.57;5.50;;;24.60;99.90;;;;;;5055350;28;20180;-73
2022/07/21 10:28:11;;;;;;;5.30;4.68;;;24.70;99.90;;;;;;5072015;28;20259;-73
2022/07/21 10:30:42;;;;;;;4.50;4.00;;;24.90;99.90;;;;;;5071644;28;20184;-73
2022/07/21 10:33:07;;;;;;;4.20;3.28;;;25.10;99.90;;;;;;5071861;28;20243;-74
2022/07/21 10:35:33;;;;;;;3.92;3.30;;;25.20;99.90;;;;;;5038818;28;20169;-73
2022/07/21 10:38:01;;;;;;;5.05;3.17;;;25.50;99.90;;;;;;5071718;28;20176;-73
2022/07/21 10:40:28;;;;;;;3.50;3.20;;;25.60;99.90;;;;;;5055039;28;20169;-73
2022/07/21 10:42:59;;;;;;;3.20;2.90;;;25.50;99.90;;;;;;5071512;28;20706;-73
2022/07/21 10:45:45;;;;;;;3.53;3.22;;;25.70;99.90;;;;;;5072697;28;20173;-72
2022/07/21 10:48:41;;;;;;;3.50;2.78;;;25.70;99.90;;;;;;5072802;28;20524;-74
2022/07/21 10:51:09;;;;;;;4.28;3.22;;;25.70;99.90;;;;;;5072665;28;20636;-73
2022/07/21 10:53:36;;;;;;;3.90;3.50;;;26.00;99.90;;;;;;5071034;28;20177;-72
2022/07/21 10:56:02;;;;;;;3.70;3.40;;;26.10;99.90;;;;;;5070566;28;20200;-73
2022/07/21 10:58:39;;;;;;;3.20;2.95;;;26.40;99.90;;;;;;5071226;28;20207;-72
2022/07/21 11:01:25;;;;;;;5.30;3.20;;;26.80;99.90;;;;;;5054798;28;20173;-72
2022/07/21 11:04:08;;;;;;;4.05;3.60;;;26.80;99.90;;;;;;5070749;28;20176;-72
2022/07/21 11:06:35;;;;;;;3.60;3.30;;;26.80;99.90;;;;;;5071107;28;20285;-72
2022/07/21 11:09:04;;;;;;;3.85;3.42;;;26.70;99.90;;;;;;5054664;28;20249;-72
2022/07/21 11:11:32;;;;;;;4.50;3.55;;;26.70;99.90;;;;;;5071168;28;20243;-72
2022/07/21 11:14:04;;;;;;;4.50;3.67;;;26.70;99.90;;;;;;5054409;28;20173;-73
2022/07/21 11:17:02;;;;;;;4.32;3.92;;;26.90;99.90;;;;;;5081437;22;20226;-78
2022/07/21 11:19:50;;;;;;;4.15;3.83;;;27.10;99.90;;;;;;5033979;28;20214;-79
2022/07/21 11:22:20;;;;;;;3.80;3.50;;;27.10;99.90;;;;;;5018477;28;20189;-78
2022/07/21 11:24:57;;;;;;;3.50;3.20;;;26.80;99.90;;;;;;5015619;28;20174;-78
2022/07/21 11:27:25;;;;;;;3.88;3.33;;;27.10;99.90;;;;;;5032021;28;20190;-79
2022/07/21 11:29:54;;;;;;;3.60;3.30;;;26.60;99.90;;;;;;5016849;28;20189;-78
2022/07/21 11:32:20;;;;;;;3.95;3.50;;;26.10;99.90;;;;;;5044119;28;20264;-82
2022/07/21 11:35:01;;;;;;;4.28;3.83;;;26.50;99.90;;;;;;5038543;28;20178;-80
2022/07/21 11:37:32;;;;;;;4.63;3.88;;;26.90;99.90;;;;;;5032176;28;20198;-82
2022/07/21 11:39:59;;;;;;;4.10;3.70;;;26.60;99.90;;;;;;5031042;28;20552;-82
2022/07/21 11:42:26;;;;;;;4.20;3.63;;;26.30;99.90;;;;;;5014771;28;20641;-82
2022/07/21 11:44:52;;;;;;;4.40;3.85;;;26.30;99.90;;;;;;5014970;28;20281;-82
2022/07/21 11:47:20;;;;;;;4.65;3.80;;;26.00;99.90;;;;;;4998748;28;20662;-82
2022/07/21 11:49:46;;;;;;;3.97;3.67;;;25.90;99.90;;;;;;5015162;28;20189;-82
2022/07/21 11:52:20;;;;;;;3.85;3.33;;;26.10;99.90;;;;;;5014824;28;20178;-82
2022/07/21 11:54:49;;;;;;;4.07;3.72;;;26.20;99.90;;;;;;5015609;28;20178;-83
2022/07/21 11:57:16;;;;;;;4.00;3.70;;;26.70;99.90;;;;;;5031123;28;20190;-81
2022/07/21 11:59:43;;;;;;;3.45;3.15;;;26.80;99.90;;;;;;5014847;28;20213;-82
2022/07/21 12:02:13;;;;;;;3.90;3.50;;;26.60;99.90;;;;;;5030984;28;20174;-82
2022/07/21 12:04:47;;;;;;;5.25;3.47;;;26.40;99.90;;;;;;5014994;28;20198;-83
2022/07/21 12:07:23;;;;;;;4.22;3.70;;;26.40;99.90;;;;;;5032152;28;20189;-83
2022/07/21 12:09:52;;;;;;;4.57;3.30;;;26.30;99.90;;;;;;5019893;28;20617;-83
2022/07/21 12:12:28;;;;;;;3.78;3.30;;;26.10;99.90;;;;;;5035104;28;20174;-82
2022/07/21 12:14:53;;;;;;;3.65;3.35;;;25.90;99.90;;;;;;5035264;28;20188;-82
2022/07/21 12:17:37;;;;;;;4.47;3.22;;;25.80;99.90;;;;;;5018964;28;20218;-83
2022/07/21 12:20:07;;;;;;;4.03;3.63;;;25.80;99.90;;;;;;5035071;28;20210;-82
2022/07/21 12:22:34;;;;;;;3.38;3.08;;;25.80;99.90;;;;;;5018442;28;20175;-83
2022/07/21 12:25:00;;;;;;;3.80;3.50;;;25.90;99.90;;;;;;5018770;28;20182;-82
2022/07/21 12:27:26;;;;;;;3.80;3.33;;;26.00;99.90;;;;;;5018453;28;20577;-82
2022/07/21 12:29:52;;;;;;;4.00;3.60;;;26.10;99.90;;;;;;5035621;28;20174;-82
2022/07/21 12:32:45;;;;;;;3.47;3.17;;;26.10;99.90;;;;;;5035097;28;20175;-81
2022/07/21 12:35:23;;;;;;;3.67;3.38;;;26.70;99.90;;;;;;5034748;28;20208;-83
2022/07/21 12:38:00;;;;;;;3.53;3.22;;;26.90;99.90;;;;;;5002050;28;20202;-82
2022/07/21 12:40:28;;;;;;;4.53;3.13;;;27.10;99.90;;;;;;5034808;28;20174;-83
2022/07/21 12:43:10;;;;;;;3.35;3.05;;;27.40;99.90;;;;;;5018486;28;20186;-82
2022/07/21 12:45:57;;;;;;;3.20;3.00;;;27.80;99.90;;;;;;5034758;28;20174;-81
2022/07/21 12:48:33;;;;;;;3.85;3.05;;;27.70;99.60;;;;;;5035080;28;20253;-82
2022/07/21 12:51:03;;;;;;;3.80;3.40;;;27.40;99.90;;;;;;5034752;28;20181;-82